sensor_id;sensor_type;location;lat;lon;timestamp;temperature;humidity
53310;DHT22;39197;53.200;5.792;2023-12-20T00:01:41;7.00;99.90
53310;DHT22;39197;53.200;5.792;2023-12-20T00:04:07;6.90;99.90
53310;DHT22;39197;53.200;5.792;2023-12-20T00:06:32;6.80;99.90
53310;DHT22;39197;53.200;5.792;2023-12-20T00:08:58;6.80;99.90
53310;DHT22;39197;53.200;5.792;2023-12-20T00:11:24;6.90;99.90
53310;DHT22;39197;53.200;5.792;2023-12-20T00:13:49;6.80;99.90
53310;DHT22;39197;53.200;5.792;2023-12-20T00:16:15;6.80;99.90
53310;DHT22;39197;53.200;5.792;2023-12-20T00:18:40;6.80;99.90
53310;DHT22;39197;53.200;5.792;2023-12-20T00:21:06;6.80;99.90
53310;DHT22;39197;53.200;5.792;2023-12-20T00:23:31;6.80;99.90
53310;DHT22;39197;53.200;5.792;2023-12-20T00:25:57;6.80;99.90
53310;DHT22;39197;53.200;5.792;2023-12-20T00:28:23;6.80;99.90
53310;DHT22;39197;53.200;5.792;2023-12-20T00:30:48;6.90;99.90
53310;DHT22;39197;53.200;5.792;2023-12-20T00:33:14;6.90;99.90
53310;DHT22;39197;53.200;5.792;2023-12-20T00:35:39;6.90;99.90
53310;DHT22;39197;53.200;5.792;2023-12-20T00:38:05;6.90;99.90
53310;DHT22;39197;53.200;5.792;2023-12-20T00:40:32;6.90;99.90
53310;DHT22;39197;53.200;5.792;2023-12-20T00:42:58;7.00;99.90
53310;DHT22;39197;53.200;5.792;2023-12-20T00:45:24;6.90;99.90
53310;DHT22;39197;53.200;5.792;2023-12-20T00:47:49;6.90;99.90
53310;DHT22;39197;53.200;5.792;2023-12-20T00:50:16;7.00;99.90
53310;DHT22;39197;53.200;5.792;2023-12-20T00:52:41;6.90;99.90
53310;DHT22;39197;53.200;5.792;2023-12-20T00:55:07;7.00;99.90
53310;DHT22;39197;53.200;5.792;2023-12-20T00:57:33;7.00;99.90
53310;DHT22;39197;53.200;5.792;2023-12-20T00:59:58;7.00;99.90
53310;DHT22;39197;53.200;5.792;2023-12-20T01:02:24;7.10;99.90
53310;DHT22;39197;53.200;5.792;2023-12-20T01:04:49;7.20;99.90
53310;DHT22;39197;53.200;5.792;2023-12-20T01:07:15;7.20;99.90
53310;DHT22;39197;53.200;5.792;2023-12-20T01:09:40;7.10;99.90
53310;DHT22;39197;53.200;5.792;2023-12-20T01:12:06;7.20;99.90
53310;DHT22;39197;53.200;5.792;2023-12-20T01:14:32;7.10;99.90
53310;DHT22;39197;53.200;5.792;2023-12-20T01:16:57;7.30;99.90
53310;DHT22;39197;53.200;5.792;2023-12-20T01:19:24;7.20;99.90
53310;DHT22;39197;53.200;5.792;2023-12-20T01:21:50;7.20;99.90
53310;DHT22;39197;53.200;5.792;2023-12-20T01:24:15;7.20;99.90
53310;DHT22;39197;53.200;5.792;2023-12-20T01:26:41;7.20;99.90
53310;DHT22;39197;53.200;5.792;2023-12-20T01:29:06;7.20;99.90
53310;DHT22;39197;53.200;5.792;2023-12-20T01:31:32;7.20;99.90
53310;DHT22;39197;53.200;5.792;2023-12-20T01:33:58;7.30;99.90
53310;DHT22;39197;53.200;5.792;2023-12-20T01:36:23;7.40;99.90
53310;DHT22;39197;53.200;5.792;2023-12-20T01:38:49;7.30;99.90
53310;DHT22;39197;53.200;5.792;2023-12-20T01:41:15;7.40;99.90
53310;DHT22;39197;53.200;5.792;2023-12-20T01:43:40;7.40;99.90
53310;DHT22;39197;53.200;5.792;2023-12-20T01:46:06;7.40;99.90
53310;DHT22;39197;53.200;5.792;2023-12-20T01:48:32;7.40;99.90
53310;DHT22;39197;53.200;5.792;2023-12-20T01:50:59;7.40;99.90
53310;DHT22;39197;53.200;5.792;2023-12-20T01:53:27;7.40;99.90
53310;DHT22;39197;53.200;5.792;2023-12-20T01:55:54;7.30;99.90
53310;DHT22;39197;53.200;5.792;2023-12-20T01:58:21;7.30;99.90
53310;DHT22;39197;53.200;5.792;2023-12-20T02:00:48;7.40;99.90
53310;DHT22;39197;53.200;5.792;2023-12-20T02:03:14;7.40;99.90
53310;DHT22;39197;53.200;5.792;2023-12-20T02:05:40;7.40;99.90
53310;DHT22;39197;53.200;5.792;2023-12-20T02:08:06;7.40;99.90
53310;DHT22;39197;53.200;5.792;2023-12-20T02:10:32;7.40;99.90
53310;DHT22;39197;53.200;5.792;2023-12-20T02:12:58;7.40;99.90
53310;DHT22;39197;53.200;5.792;2023-12-20T02:15:24;7.40;99.90
53310;DHT22;39197;53.200;5.792;2023-12-20T02:17:50;7.40;99.90
53310;DHT22;39197;53.200;5.792;2023-12-20T02:20:15;7.40;99.90
53310;DHT22;39197;53.200;5.792;2023-12-20T02:22:41;7.40;99.90
53310;DHT22;39197;53.200;5.792;2023-12-20T02:25:07;7.40;99.90
53310;DHT22;39197;53.200;5.792;2023-12-20T02:27:32;7.40;99.90
53310;DHT22;39197;53.200;5.792;2023-12-20T02:29:58;7.40;99.90
53310;DHT22;39197;53.200;5.792;2023-12-20T02:32:24;7.40;99.90
53310;DHT22;39197;53.200;5.792;2023-12-20T02:34:53;7.30;99.90
53310;DHT22;39197;53.200;5.792;2023-12-20T02:37:19;7.50;99.90
53310;DHT22;39197;53.200;5.792;2023-12-20T02:39:44;7.50;99.90
53310;DHT22;39197;53.200;5.792;2023-12-20T02:42:10;7.40;99.90
53310;DHT22;39197;53.200;5.792;2023-12-20T02:44:35;7.30;99.90
53310;DHT22;39197;53.200;5.792;2023-12-20T02:47:02;7.40;99.90
53310;DHT22;39197;53.200;5.792;2023-12-20T02:49:27;7.50;99.90
53310;DHT22;39197;53.200;5.792;2023-12-20T02:51:53;7.40;99.90
53310;DHT22;39197;53.200;5.792;2023-12-20T02:54:18;7.40;99.90
53310;DHT22;39197;53.200;5.792;2023-12-20T02:56:44;7.40;99.90
53310;DHT22;39197;53.200;5.792;2023-12-20T02:59:10;7.40;99.90
53310;DHT22;39197;53.200;5.792;2023-12-20T03:01:44;7.30;99.90
53310;DHT22;39197;53.200;5.792;2023-12-20T03:04:10;7.40;99.90
53310;DHT22;39197;53.200;5.792;2023-12-20T03:06:36;7.30;99.90
53310;DHT22;39197;53.200;5.792;2023-12-20T03:09:02;7.40;99.90
53310;DHT22;39197;53.200;5.792;2023-12-20T03:11:28;7.40;99.90
53310;DHT22;39197;53.200;5.792;2023-12-20T03:13:54;7.40;99.90
53310;DHT22;39197;53.200;5.792;2023-12-20T03:16:20;7.50;99.90
53310;DHT22;39197;53.200;5.792;2023-12-20T03:18:45;7.40;99.90
53310;DHT22;39197;53.200;5.792;2023-12-20T03:21:11;7.50;99.90
53310;DHT22;39197;53.200;5.792;2023-12-20T03:23:37;7.50;99.90
53310;DHT22;39197;53.200;5.792;2023-12-20T03:26:02;7.60;99.90
53310;DHT22;39197;53.200;5.792;2023-12-20T03:28:30;7.50;99.90
53310;DHT22;39197;53.200;5.792;2023-12-20T03:30:55;7.60;99.90
53310;DHT22;39197;53.200;5.792;2023-12-20T03:33:21;7.60;99.90
53310;DHT22;39197;53.200;5.792;2023-12-20T03:35:46;7.60;99.90
53310;DHT22;39197;53.200;5.792;2023-12-20T03:38:12;7.60;99.90
53310;DHT22;39197;53.200;5.792;2023-12-20T03:40:38;7.60;99.90
53310;DHT22;39197;53.200;5.792;2023-12-20T03:43:03;7.60;99.90
53310;DHT22;39197;53.200;5.792;2023-12-20T03:45:29;7.70;99.90
53310;DHT22;39197;53.200;5.792;2023-12-20T03:47:54;7.60;99.90
53310;DHT22;39197;53.200;5.792;2023-12-20T03:50:25;7.70;99.90
53310;DHT22;39197;53.200;5.792;2023-12-20T03:52:51;7.60;99.90
53310;DHT22;39197;53.200;5.792;2023-12-20T03:55:16;7.60;99.90
53310;DHT22;39197;53.200;5.792;2023-12-20T03:57:42;7.70;99.90
53310;DHT22;39197;53.200;5.792;2023-12-20T04:00:08;7.70;99.90
53310;DHT22;39197;53.200;5.792;2023-12-20T04:02:36;7.60;99.90
53310;DHT22;39197;53.200;5.792;2023-12-20T04:05:02;7.70;99.90
53310;DHT22;39197;53.200;5.792;2023-12-20T04:07:27;7.60;99.90
53310;DHT22;39197;53.200;5.792;2023-12-20T04:09:53;7.70;99.90
53310;DHT22;39197;53.200;5.792;2023-12-20T04:12:19;7.60;99.90
53310;DHT22;39197;53.200;5.792;2023-12-20T04:14:44;7.70;99.90
53310;DHT22;39197;53.200;5.792;2023-12-20T04:17:10;7.70;99.90
53310;DHT22;39197;53.200;5.792;2023-12-20T04:19:35;7.60;99.90
53310;DHT22;39197;53.200;5.792;2023-12-20T04:22:01;7.60;99.90
53310;DHT22;39197;53.200;5.792;2023-12-20T04:24:26;7.70;99.90
53310;DHT22;39197;53.200;5.792;2023-12-20T04:26:52;7.70;99.90
53310;DHT22;39197;53.200;5.792;2023-12-20T04:29:17;7.70;99.90
53310;DHT22;39197;53.200;5.792;2023-12-20T04:31:43;7.70;99.90
53310;DHT22;39197;53.200;5.792;2023-12-20T04:34:09;7.60;99.90
53310;DHT22;39197;53.200;5.792;2023-12-20T04:36:34;7.70;99.90
53310;DHT22;39197;53.200;5.792;2023-12-20T04:39:00;7.70;99.90
53310;DHT22;39197;53.200;5.792;2023-12-20T04:41:25;7.70;99.90
53310;DHT22;39197;53.200;5.792;2023-12-20T04:43:52;7.80;99.90
53310;DHT22;39197;53.200;5.792;2023-12-20T04:46:17;7.80;99.90
53310;DHT22;39197;53.200;5.792;2023-12-20T04:48:43;7.80;99.90
53310;DHT22;39197;53.200;5.792;2023-12-20T04:51:09;7.80;99.90
53310;DHT22;39197;53.200;5.792;2023-12-20T04:53:34;7.80;99.90
53310;DHT22;39197;53.200;5.792;2023-12-20T04:56:00;7.80;99.90
53310;DHT22;39197;53.200;5.792;2023-12-20T04:58:25;7.70;99.90
53310;DHT22;39197;53.200;5.792;2023-12-20T05:00:51;7.80;99.90
53310;DHT22;39197;53.200;5.792;2023-12-20T05:03:16;7.80;99.90
53310;DHT22;39197;53.200;5.792;2023-12-20T05:05:42;7.80;99.90
53310;DHT22;39197;53.200;5.792;2023-12-20T05:08:07;7.80;99.90
53310;DHT22;39197;53.200;5.792;2023-12-20T05:10:33;7.90;99.90
53310;DHT22;39197;53.200;5.792;2023-12-20T05:12:59;7.90;99.90
53310;DHT22;39197;53.200;5.792;2023-12-20T05:15:25;7.90;99.90
53310;DHT22;39197;53.200;5.792;2023-12-20T05:17:50;7.90;99.90
53310;DHT22;39197;53.200;5.792;2023-12-20T05:20:16;7.90;99.90
53310;DHT22;39197;53.200;5.792;2023-12-20T05:22:41;7.90;99.90
53310;DHT22;39197;53.200;5.792;2023-12-20T05:25:07;7.90;99.90
53310;DHT22;39197;53.200;5.792;2023-12-20T05:27:33;7.90;99.90
53310;DHT22;39197;53.200;5.792;2023-12-20T05:29:58;7.90;99.90
53310;DHT22;39197;53.200;5.792;2023-12-20T05:32:24;7.90;99.90
53310;DHT22;39197;53.200;5.792;2023-12-20T05:34:50;7.90;99.90
53310;DHT22;39197;53.200;5.792;2023-12-20T05:37:16;7.90;99.90
53310;DHT22;39197;53.200;5.792;2023-12-20T05:39:41;7.90;99.90
53310;DHT22;39197;53.200;5.792;2023-12-20T05:42:07;8.00;99.90
53310;DHT22;39197;53.200;5.792;2023-12-20T05:44:32;8.00;99.90
53310;DHT22;39197;53.200;5.792;2023-12-20T05:46:58;8.00;99.90
53310;DHT22;39197;53.200;5.792;2023-12-20T05:49:23;7.90;99.90
53310;DHT22;39197;53.200;5.792;2023-12-20T05:51:49;7.90;99.90
53310;DHT22;39197;53.200;5.792;2023-12-20T05:54:16;7.90;99.90
53310;DHT22;39197;53.200;5.792;2023-12-20T05:56:42;7.90;99.90
53310;DHT22;39197;53.200;5.792;2023-12-20T05:59:07;7.90;99.90
53310;DHT22;39197;53.200;5.792;2023-12-20T06:01:33;8.00;99.90
53310;DHT22;39197;53.200;5.792;2023-12-20T06:03:59;8.00;99.90
53310;DHT22;39197;53.200;5.792;2023-12-20T06:06:24;8.00;99.90
53310;DHT22;39197;53.200;5.792;2023-12-20T06:08:50;8.00;99.90
53310;DHT22;39197;53.200;5.792;2023-12-20T06:11:15;8.00;99.90
53310;DHT22;39197;53.200;5.792;2023-12-20T06:13:41;8.00;99.90
53310;DHT22;39197;53.200;5.792;2023-12-20T06:16:06;8.00;99.90
53310;DHT22;39197;53.200;5.792;2023-12-20T06:18:35;8.00;99.90
53310;DHT22;39197;53.200;5.792;2023-12-20T06:21:02;8.00;99.90
53310;DHT22;39197;53.200;5.792;2023-12-20T06:23:28;8.00;99.90
53310;DHT22;39197;53.200;5.792;2023-12-20T06:25:53;8.00;99.90
53310;DHT22;39197;53.200;5.792;2023-12-20T06:28:19;8.00;99.90
53310;DHT22;39197;53.200;5.792;2023-12-20T06:30:45;8.10;99.90
53310;DHT22;39197;53.200;5.792;2023-12-20T06:33:12;8.10;99.90
53310;DHT22;39197;53.200;5.792;2023-12-20T06:35:38;8.10;99.90
53310;DHT22;39197;53.200;5.792;2023-12-20T06:38:04;8.10;99.90
53310;DHT22;39197;53.200;5.792;2023-12-20T06:40:30;8.10;99.90
53310;DHT22;39197;53.200;5.792;2023-12-20T06:42:55;8.10;99.90
53310;DHT22;39197;53.200;5.792;2023-12-20T06:45:21;8.10;99.90
53310;DHT22;39197;53.200;5.792;2023-12-20T06:47:46;8.10;99.90
53310;DHT22;39197;53.200;5.792;2023-12-20T06:50:12;8.10;99.90
53310;DHT22;39197;53.200;5.792;2023-12-20T06:52:38;8.10;99.90
53310;DHT22;39197;53.200;5.792;2023-12-20T06:55:04;8.10;99.90
53310;DHT22;39197;53.200;5.792;2023-12-20T06:57:30;8.10;99.90
53310;DHT22;39197;53.200;5.792;2023-12-20T06:59:55;8.00;99.90
53310;DHT22;39197;53.200;5.792;2023-12-20T07:02:21;8.10;99.90
53310;DHT22;39197;53.200;5.792;2023-12-20T07:04:47;8.00;99.90
53310;DHT22;39197;53.200;5.792;2023-12-20T07:07:13;8.00;99.90
53310;DHT22;39197;53.200;5.792;2023-12-20T07:09:39;8.00;99.90
53310;DHT22;39197;53.200;5.792;2023-12-20T07:12:06;8.00;99.90
53310;DHT22;39197;53.200;5.792;2023-12-20T07:14:32;8.00;99.90
53310;DHT22;39197;53.200;5.792;2023-12-20T07:16:57;7.90;99.90
53310;DHT22;39197;53.200;5.792;2023-12-20T07:19:23;7.90;99.90
53310;DHT22;39197;53.200;5.792;2023-12-20T07:21:48;8.00;99.90
53310;DHT22;39197;53.200;5.792;2023-12-20T07:24:14;7.80;99.90
53310;DHT22;39197;53.200;5.792;2023-12-20T07:26:39;7.90;99.90
53310;DHT22;39197;53.200;5.792;2023-12-20T07:29:05;8.00;99.90
53310;DHT22;39197;53.200;5.792;2023-12-20T07:31:32;8.00;99.90
53310;DHT22;39197;53.200;5.792;2023-12-20T07:33:58;8.00;99.90
53310;DHT22;39197;53.200;5.792;2023-12-20T07:36:23;8.10;99.90
53310;DHT22;39197;53.200;5.792;2023-12-20T07:38:49;8.10;99.90
53310;DHT22;39197;53.200;5.792;2023-12-20T07:41:14;8.10;99.90
53310;DHT22;39197;53.200;5.792;2023-12-20T07:43:41;8.10;99.90
53310;DHT22;39197;53.200;5.792;2023-12-20T07:46:10;8.10;99.90
53310;DHT22;39197;53.200;5.792;2023-12-20T07:48:36;8.20;99.90
53310;DHT22;39197;53.200;5.792;2023-12-20T07:51:02;8.10;99.90
53310;DHT22;39197;53.200;5.792;2023-12-20T07:53:28;8.10;99.90
53310;DHT22;39197;53.200;5.792;2023-12-20T07:55:53;8.10;99.90
53310;DHT22;39197;53.200;5.792;2023-12-20T07:58:20;8.00;99.90
53310;DHT22;39197;53.200;5.792;2023-12-20T08:00:46;7.90;99.90
53310;DHT22;39197;53.200;5.792;2023-12-20T08:03:11;7.70;99.90
53310;DHT22;39197;53.200;5.792;2023-12-20T08:05:38;7.60;99.90
53310;DHT22;39197;53.200;5.792;2023-12-20T08:08:06;7.50;99.90
53310;DHT22;39197;53.200;5.792;2023-12-20T08:10:32;7.40;99.90
53310;DHT22;39197;53.200;5.792;2023-12-20T08:12:57;7.40;99.90
53310;DHT22;39197;53.200;5.792;2023-12-20T08:15:23;7.50;99.90
53310;DHT22;39197;53.200;5.792;2023-12-20T08:17:49;7.60;99.90
53310;DHT22;39197;53.200;5.792;2023-12-20T08:20:16;7.70;99.90
53310;DHT22;39197;53.200;5.792;2023-12-20T08:22:42;7.70;99.90
53310;DHT22;39197;53.200;5.792;2023-12-20T08:25:08;7.80;99.90
53310;DHT22;39197;53.200;5.792;2023-12-20T08:27:38;8.00;99.90
53310;DHT22;39197;53.200;5.792;2023-12-20T08:30:04;8.00;99.90
53310;DHT22;39197;53.200;5.792;2023-12-20T08:32:30;8.00;99.90
53310;DHT22;39197;53.200;5.792;2023-12-20T08:34:55;8.00;99.90
53310;DHT22;39197;53.200;5.792;2023-12-20T08:37:21;8.10;99.90
53310;DHT22;39197;53.200;5.792;2023-12-20T08:39:46;8.20;99.90
53310;DHT22;39197;53.200;5.792;2023-12-20T08:42:12;8.20;99.90
53310;DHT22;39197;53.200;5.792;2023-12-20T08:44:37;8.10;99.90
53310;DHT22;39197;53.200;5.792;2023-12-20T08:47:03;8.10;99.90
53310;DHT22;39197;53.200;5.792;2023-12-20T08:49:29;8.10;99.90
53310;DHT22;39197;53.200;5.792;2023-12-20T08:51:54;8.20;99.90
53310;DHT22;39197;53.200;5.792;2023-12-20T08:54:20;8.20;99.90
53310;DHT22;39197;53.200;5.792;2023-12-20T08:56:46;7.80;99.90
53310;DHT22;39197;53.200;5.792;2023-12-20T08:59:11;7.50;99.90
53310;DHT22;39197;53.200;5.792;2023-12-20T09:01:37;7.10;99.90
53310;DHT22;39197;53.200;5.792;2023-12-20T09:04:03;6.80;99.90
53310;DHT22;39197;53.200;5.792;2023-12-20T09:06:29;6.70;99.90
53310;DHT22;39197;53.200;5.792;2023-12-20T09:08:54;6.60;99.90
53310;DHT22;39197;53.200;5.792;2023-12-20T09:11:20;6.50;99.90
53310;DHT22;39197;53.200;5.792;2023-12-20T09:13:45;6.50;99.90
53310;DHT22;39197;53.200;5.792;2023-12-20T09:16:11;6.40;99.90
53310;DHT22;39197;53.200;5.792;2023-12-20T09:18:38;6.30;99.90
53310;DHT22;39197;53.200;5.792;2023-12-20T09:21:04;6.30;99.90
53310;DHT22;39197;53.200;5.792;2023-12-20T09:23:29;6.20;99.90
53310;DHT22;39197;53.200;5.792;2023-12-20T09:25:55;6.30;99.90
53310;DHT22;39197;53.200;5.792;2023-12-20T09:28:20;6.20;99.90
53310;DHT22;39197;53.200;5.792;2023-12-20T09:30:46;6.20;99.90
53310;DHT22;39197;53.200;5.792;2023-12-20T09:33:13;6.30;99.90
53310;DHT22;39197;53.200;5.792;2023-12-20T09:35:39;6.30;99.90
53310;DHT22;39197;53.200;5.792;2023-12-20T09:38:04;6.30;99.90
53310;DHT22;39197;53.200;5.792;2023-12-20T09:40:32;6.40;99.90
53310;DHT22;39197;53.200;5.792;2023-12-20T09:43:04;6.50;99.90
53310;DHT22;39197;53.200;5.792;2023-12-20T09:45:31;6.50;99.90
53310;DHT22;39197;53.200;5.792;2023-12-20T09:47:58;6.50;99.90
53310;DHT22;39197;53.200;5.792;2023-12-20T09:50:24;6.60;99.90
53310;DHT22;39197;53.200;5.792;2023-12-20T09:52:51;6.60;99.90
53310;DHT22;39197;53.200;5.792;2023-12-20T09:55:18;6.70;99.90
53310;DHT22;39197;53.200;5.792;2023-12-20T09:57:45;6.70;99.90
53310;DHT22;39197;53.200;5.792;2023-12-20T10:00:11;6.70;99.90
53310;DHT22;39197;53.200;5.792;2023-12-20T10:02:40;6.70;99.90
53310;DHT22;39197;53.200;5.792;2023-12-20T10:05:08;6.70;99.90
53310;DHT22;39197;53.200;5.792;2023-12-20T10:07:36;6.90;99.90
53310;DHT22;39197;53.200;5.792;2023-12-20T10:10:02;7.00;99.90
53310;DHT22;39197;53.200;5.792;2023-12-20T10:12:27;7.20;99.90
53310;DHT22;39197;53.200;5.792;2023-12-20T10:14:53;7.40;99.90
53310;DHT22;39197;53.200;5.792;2023-12-20T10:17:18;7.40;99.90
53310;DHT22;39197;53.200;5.792;2023-12-20T10:19:44;7.60;99.90
53310;DHT22;39197;53.200;5.792;2023-12-20T10:22:10;7.50;99.90
53310;DHT22;39197;53.200;5.792;2023-12-20T10:24:35;7.60;99.90
53310;DHT22;39197;53.200;5.792;2023-12-20T10:27:05;7.60;99.90
53310;DHT22;39197;53.200;5.792;2023-12-20T10:29:32;7.70;99.90
53310;DHT22;39197;53.200;5.792;2023-12-20T10:31:58;7.70;99.90
53310;DHT22;39197;53.200;5.792;2023-12-20T10:34:24;7.70;99.90
53310;DHT22;39197;53.200;5.792;2023-12-20T10:36:49;7.70;99.90
53310;DHT22;39197;53.200;5.792;2023-12-20T10:39:15;7.70;99.90
53310;DHT22;39197;53.200;5.792;2023-12-20T10:41:42;7.60;99.90
53310;DHT22;39197;53.200;5.792;2023-12-20T10:44:09;7.60;99.90
53310;DHT22;39197;53.200;5.792;2023-12-20T10:46:37;7.70;99.90
53310;DHT22;39197;53.200;5.792;2023-12-20T10:49:05;7.70;99.90
53310;DHT22;39197;53.200;5.792;2023-12-20T10:51:31;7.70;99.90
53310;DHT22;39197;53.200;5.792;2023-12-20T10:53:57;7.70;99.90
53310;DHT22;39197;53.200;5.792;2023-12-20T10:56:22;7.70;99.90
53310;DHT22;39197;53.200;5.792;2023-12-20T10:58:52;7.70;99.90
53310;DHT22;39197;53.200;5.792;2023-12-20T11:01:18;7.70;99.90
53310;DHT22;39197;53.200;5.792;2023-12-20T11:03:52;7.80;99.90
53310;DHT22;39197;53.200;5.792;2023-12-20T11:06:33;7.90;99.90
53310;DHT22;39197;53.200;5.792;2023-12-20T11:09:19;7.90;99.90
53310;DHT22;39197;53.200;5.792;2023-12-20T11:17:11;8.30;99.90
53310;DHT22;39197;53.200;5.792;2023-12-20T11:22:27;8.30;99.90
53310;DHT22;39197;53.200;5.792;2023-12-20T11:24:54;8.30;99.90
53310;DHT22;39197;53.200;5.792;2023-12-20T11:27:21;8.40;99.90
53310;DHT22;39197;53.200;5.792;2023-12-20T11:29:58;8.40;99.90
53310;DHT22;39197;53.200;5.792;2023-12-20T11:37:31;8.40;99.90
53310;DHT22;39197;53.200;5.792;2023-12-20T11:40:02;8.40;99.90
53310;DHT22;39197;53.200;5.792;2023-12-20T11:42:35;8.40;99.90
53310;DHT22;39197;53.200;5.792;2023-12-20T11:45:03;8.30;99.90
53310;DHT22;39197;53.200;5.792;2023-12-20T11:47:30;8.40;99.90
53310;DHT22;39197;53.200;5.792;2023-12-20T11:49:56;8.40;99.90
53310;DHT22;39197;53.200;5.792;2023-12-20T11:52:22;8.40;99.90
53310;DHT22;39197;53.200;5.792;2023-12-20T11:54:48;8.40;99.90
53310;DHT22;39197;53.200;5.792;2023-12-20T11:57:14;8.30;99.90
53310;DHT22;39197;53.200;5.792;2023-12-20T11:59:39;8.40;99.90
53310;DHT22;39197;53.200;5.792;2023-12-20T12:02:05;8.30;99.90
53310;DHT22;39197;53.200;5.792;2023-12-20T12:04:31;8.30;99.90
53310;DHT22;39197;53.200;5.792;2023-12-20T12:06:56;8.30;99.90
53310;DHT22;39197;53.200;5.792;2023-12-20T12:09:22;8.20;99.90
53310;DHT22;39197;53.200;5.792;2023-12-20T12:11:48;8.20;99.90
53310;DHT22;39197;53.200;5.792;2023-12-20T12:14:13;8.10;99.90
53310;DHT22;39197;53.200;5.792;2023-12-20T12:16:41;8.10;99.90
53310;DHT22;39197;53.200;5.792;2023-12-20T12:19:07;8.00;99.90
53310;DHT22;39197;53.200;5.792;2023-12-20T12:21:33;8.00;99.90
53310;DHT22;39197;53.200;5.792;2023-12-20T12:24:08;8.00;99.90
53310;DHT22;39197;53.200;5.792;2023-12-20T12:26:34;7.90;99.90
53310;DHT22;39197;53.200;5.792;2023-12-20T12:29:00;7.90;99.90
53310;DHT22;39197;53.200;5.792;2023-12-20T12:31:26;7.80;99.90
53310;DHT22;39197;53.200;5.792;2023-12-20T12:33:52;7.70;99.90
53310;DHT22;39197;53.200;5.792;2023-12-20T12:36:17;7.50;99.90
53310;DHT22;39197;53.200;5.792;2023-12-20T12:38:43;7.50;99.90
53310;DHT22;39197;53.200;5.792;2023-12-20T12:41:09;7.50;99.90
53310;DHT22;39197;53.200;5.792;2023-12-20T12:43:37;7.40;99.90
53310;DHT22;39197;53.200;5.792;2023-12-20T12:46:03;7.30;99.90
53310;DHT22;39197;53.200;5.792;2023-12-20T12:48:29;7.30;99.90
53310;DHT22;39197;53.200;5.792;2023-12-20T12:50:54;7.20;99.90
53310;DHT22;39197;53.200;5.792;2023-12-20T12:53:24;7.20;99.90
53310;DHT22;39197;53.200;5.792;2023-12-20T12:55:50;7.10;99.90
53310;DHT22;39197;53.200;5.792;2023-12-20T12:58:16;7.10;99.90
53310;DHT22;39197;53.200;5.792;2023-12-20T13:00:41;6.90;99.90
53310;DHT22;39197;53.200;5.792;2023-12-20T13:03:07;6.90;99.90
53310;DHT22;39197;53.200;5.792;2023-12-20T13:05:34;6.90;99.90
53310;DHT22;39197;53.200;5.792;2023-12-20T13:07:59;6.90;99.90
53310;DHT22;39197;53.200;5.792;2023-12-20T13:10:25;6.80;99.90
53310;DHT22;39197;53.200;5.792;2023-12-20T13:12:50;6.90;99.90
53310;DHT22;39197;53.200;5.792;2023-12-20T13:15:16;6.90;99.90
53310;DHT22;39197;53.200;5.792;2023-12-20T13:17:42;6.90;99.90
53310;DHT22;39197;53.200;5.792;2023-12-20T13:20:07;6.90;99.90
53310;DHT22;39197;53.200;5.792;2023-12-20T13:22:33;6.80;99.90
53310;DHT22;39197;53.200;5.792;2023-12-20T13:24:59;6.80;99.90
53310;DHT22;39197;53.200;5.792;2023-12-20T13:27:24;6.90;99.90
53310;DHT22;39197;53.200;5.792;2023-12-20T13:29:50;6.80;99.90
53310;DHT22;39197;53.200;5.792;2023-12-20T13:32:15;6.80;99.90
53310;DHT22;39197;53.200;5.792;2023-12-20T13:34:41;6.80;99.90
53310;DHT22;39197;53.200;5.792;2023-12-20T13:37:06;6.90;99.90
53310;DHT22;39197;53.200;5.792;2023-12-20T13:39:32;6.80;99.90
53310;DHT22;39197;53.200;5.792;2023-12-20T13:41:58;6.90;99.90
53310;DHT22;39197;53.200;5.792;2023-12-20T13:44:24;6.90;99.90
53310;DHT22;39197;53.200;5.792;2023-12-20T13:46:49;7.00;99.90
53310;DHT22;39197;53.200;5.792;2023-12-20T13:49:15;7.00;99.90
53310;DHT22;39197;53.200;5.792;2023-12-20T13:51:41;6.90;99.90
53310;DHT22;39197;53.200;5.792;2023-12-20T13:54:06;7.00;99.90
53310;DHT22;39197;53.200;5.792;2023-12-20T13:56:32;7.00;99.90
53310;DHT22;39197;53.200;5.792;2023-12-20T13:58:58;7.00;99.90
53310;DHT22;39197;53.200;5.792;2023-12-20T14:01:25;7.10;99.90
53310;DHT22;39197;53.200;5.792;2023-12-20T14:03:52;7.10;99.90
53310;DHT22;39197;53.200;5.792;2023-12-20T14:06:17;7.10;99.90
53310;DHT22;39197;53.200;5.792;2023-12-20T14:08:43;7.10;99.90
53310;DHT22;39197;53.200;5.792;2023-12-20T14:11:09;7.10;99.90
53310;DHT22;39197;53.200;5.792;2023-12-20T14:13:34;7.00;99.90
53310;DHT22;39197;53.200;5.792;2023-12-20T14:16:00;7.00;99.90
53310;DHT22;39197;53.200;5.792;2023-12-20T14:18:27;6.90;99.90
53310;DHT22;39197;53.200;5.792;2023-12-20T14:20:53;6.90;99.90
53310;DHT22;39197;53.200;5.792;2023-12-20T14:23:19;7.00;99.90
53310;DHT22;39197;53.200;5.792;2023-12-20T14:25:45;6.90;99.90
53310;DHT22;39197;53.200;5.792;2023-12-20T14:28:10;7.00;99.90
53310;DHT22;39197;53.200;5.792;2023-12-20T14:30:39;7.10;99.90
53310;DHT22;39197;53.200;5.792;2023-12-20T14:33:05;7.20;99.90
53310;DHT22;39197;53.200;5.792;2023-12-20T14:35:31;7.20;99.90
53310;DHT22;39197;53.200;5.792;2023-12-20T14:37:56;7.30;99.90
53310;DHT22;39197;53.200;5.792;2023-12-20T14:40:22;7.40;99.90
53310;DHT22;39197;53.200;5.792;2023-12-20T14:42:48;7.50;99.90
53310;DHT22;39197;53.200;5.792;2023-12-20T14:45:14;7.50;99.90
53310;DHT22;39197;53.200;5.792;2023-12-20T14:47:41;7.70;99.90
53310;DHT22;39197;53.200;5.792;2023-12-20T14:50:07;7.80;99.90
53310;DHT22;39197;53.200;5.792;2023-12-20T14:52:33;7.90;99.90
53310;DHT22;39197;53.200;5.792;2023-12-20T14:55:00;7.80;99.90
53310;DHT22;39197;53.200;5.792;2023-12-20T14:57:25;7.90;99.90
53310;DHT22;39197;53.200;5.792;2023-12-20T14:59:51;8.00;99.90
53310;DHT22;39197;53.200;5.792;2023-12-20T15:02:17;7.90;99.90
53310;DHT22;39197;53.200;5.792;2023-12-20T15:04:43;7.90;99.90
53310;DHT22;39197;53.200;5.792;2023-12-20T15:07:08;8.00;99.90
53310;DHT22;39197;53.200;5.792;2023-12-20T15:09:34;7.90;99.90
53310;DHT22;39197;53.200;5.792;2023-12-20T15:12:00;8.00;99.90
53310;DHT22;39197;53.200;5.792;2023-12-20T15:14:26;8.00;99.90
53310;DHT22;39197;53.200;5.792;2023-12-20T15:16:52;8.00;99.90
53310;DHT22;39197;53.200;5.792;2023-12-20T15:19:18;8.00;99.90
53310;DHT22;39197;53.200;5.792;2023-12-20T15:21:43;8.00;99.90
53310;DHT22;39197;53.200;5.792;2023-12-20T15:24:09;8.10;99.90
53310;DHT22;39197;53.200;5.792;2023-12-20T15:26:41;8.10;99.90
53310;DHT22;39197;53.200;5.792;2023-12-20T15:29:07;8.00;99.90
53310;DHT22;39197;53.200;5.792;2023-12-20T15:31:35;7.90;99.90
53310;DHT22;39197;53.200;5.792;2023-12-20T15:34:02;7.90;99.90
53310;DHT22;39197;53.200;5.792;2023-12-20T15:36:27;7.90;99.90
53310;DHT22;39197;53.200;5.792;2023-12-20T15:38:53;7.90;99.90
53310;DHT22;39197;53.200;5.792;2023-12-20T15:41:19;7.90;99.90
53310;DHT22;39197;53.200;5.792;2023-12-20T15:43:45;7.90;99.90
53310;DHT22;39197;53.200;5.792;2023-12-20T15:46:11;7.90;99.90
53310;DHT22;39197;53.200;5.792;2023-12-20T15:48:37;7.90;99.90
53310;DHT22;39197;53.200;5.792;2023-12-20T15:51:06;7.90;99.90